createdAt,value
2018-09-23T00:01:36.244Z,11.63
2018-09-23T00:04:05.798Z,5.27
2018-09-23T00:06:35.357Z,7.87
2018-09-23T00:09:06.197Z,1.20
2018-09-23T00:11:35.752Z,7.00
2018-09-23T00:14:05.287Z,2.20
2018-09-23T00:16:34.760Z,2.20
2018-09-23T00:19:04.266Z,7.00
2018-09-23T00:21:33.810Z,7.80
2018-09-23T00:24:03.300Z,4.33
2018-09-23T00:26:32.845Z,6.03
2018-09-23T00:29:02.380Z,3.67
2018-09-23T00:31:31.861Z,5.63
2018-09-23T00:34:01.434Z,3.43
2018-09-23T00:36:30.897Z,5.83
2018-09-23T00:39:00.383Z,3.37
2018-09-23T00:41:29.859Z,3.93
2018-09-23T00:43:59.311Z,5.37
2018-09-23T00:46:28.787Z,7.70
2018-09-23T00:48:58.252Z,9.33
2018-09-23T00:51:27.791Z,13.80
2018-09-23T00:53:57.273Z,4.50
2018-09-23T00:56:26.817Z,11.63
2018-09-23T00:58:56.261Z,12.07
2018-09-23T01:01:25.759Z,20.87
2018-09-23T01:03:55.229Z,7.60
2018-09-23T01:06:24.779Z,7.43
2018-09-23T01:08:54.223Z,7.97
2018-09-23T01:11:23.838Z,9.90
2018-09-23T01:13:53.509Z,12.80
2018-09-23T01:16:22.960Z,4.27
2018-09-23T01:18:52.434Z,8.90
2018-09-23T01:21:22.048Z,4.73
2018-09-23T01:23:51.492Z,11.53
2018-09-23T01:26:21.295Z,10.50
2018-09-23T01:28:50.760Z,5.23
2018-09-23T01:31:20.263Z,12.80
2018-09-23T01:33:49.937Z,7.47
2018-09-23T01:36:19.612Z,9.10
2018-09-23T01:38:49.079Z,7.27
2018-09-23T01:41:18.772Z,10.80
2018-09-23T01:43:48.248Z,4.87
2018-09-23T01:46:17.714Z,5.20
2018-09-23T01:48:47.255Z,3.97
2018-09-23T01:51:16.708Z,3.80
2018-09-23T01:53:46.173Z,10.53
2018-09-23T01:56:15.675Z,8.83
2018-09-23T01:58:45.176Z,10.63
2018-09-23T02:01:14.623Z,15.63
2018-09-23T02:03:44.101Z,7.20
2018-09-23T02:06:13.581Z,13.23
2018-09-23T02:08:43.068Z,7.00
2018-09-23T02:11:12.572Z,8.00
2018-09-23T02:13:42.076Z,8.40
2018-09-23T02:16:11.576Z,7.60
2018-09-23T02:18:41.048Z,5.87
2018-09-23T02:21:10.586Z,10.97
2018-09-23T02:23:40.071Z,14.63
2018-09-23T02:26:09.604Z,5.90
2018-09-23T02:28:39.089Z,7.30
2018-09-23T02:31:08.581Z,7.80
2018-09-23T02:33:38.069Z,15.97
2018-09-23T02:36:07.571Z,6.03
2018-09-23T02:38:37.038Z,14.37
2018-09-23T02:41:06.561Z,11.70
2018-09-23T02:43:36.051Z,5.20
2018-09-23T02:46:05.514Z,5.60
2018-09-23T02:48:34.988Z,26.40
2018-09-23T02:51:04.571Z,12.43
2018-09-23T02:53:34.039Z,7.00
2018-09-23T02:56:03.472Z,4.57
2018-09-23T02:58:32.956Z,4.07
2018-09-23T03:01:02.392Z,5.40
2018-09-23T03:03:31.858Z,4.23
2018-09-23T03:06:01.327Z,4.17
2018-09-23T03:08:30.806Z,7.20
2018-09-23T03:11:00.292Z,6.67
2018-09-23T03:13:29.878Z,4.43
2018-09-23T03:15:59.328Z,3.87
2018-09-23T03:18:28.981Z,3.63
2018-09-23T03:20:58.491Z,7.23
2018-09-23T03:23:28.256Z,4.50
2018-09-23T03:25:57.727Z,3.97
2018-09-23T03:28:27.500Z,7.33
2018-09-23T03:30:56.967Z,4.47
2018-09-23T03:33:26.426Z,3.23
2018-09-23T03:35:56.029Z,4.93
2018-09-23T03:38:25.504Z,3.60
2018-09-23T03:40:54.988Z,3.33
2018-09-23T03:43:24.446Z,8.43
2018-09-23T03:45:53.988Z,6.43
2018-09-23T03:48:23.476Z,3.20
2018-09-23T03:50:53.030Z,2.83
2018-09-23T03:53:22.491Z,3.40
2018-09-23T03:55:52.030Z,3.53
2018-09-23T03:58:21.530Z,4.07
2018-09-23T04:00:51.031Z,2.97
2018-09-23T04:03:20.725Z,2.73
2018-09-23T04:05:50.235Z,2.67
2018-09-23T04:08:20.351Z,1.90
2018-09-23T04:10:49.787Z,2.10
2018-09-23T04:13:19.259Z,2.30
2018-09-23T04:15:48.686Z,5.23
2018-09-23T04:18:18.230Z,2.30
2018-09-23T04:20:47.737Z,1.83
2018-09-23T04:23:17.289Z,2.40
2018-09-23T04:25:46.716Z,3.90
2018-09-23T04:28:16.181Z,1.80
2018-09-23T04:30:45.695Z,2.53
2018-09-23T04:33:15.245Z,1.70
2018-09-23T04:35:44.698Z,1.10
2018-09-23T04:38:14.189Z,1.77
2018-09-23T04:40:43.692Z,2.07
2018-09-23T04:43:13.205Z,1.37
2018-09-23T04:45:42.669Z,1.30
2018-09-23T04:48:12.160Z,1.20
2018-09-23T04:50:41.620Z,1.30
2018-09-23T04:53:11.165Z,1.30
2018-09-23T04:55:40.774Z,2.00
2018-09-23T04:58:10.341Z,1.33
2018-09-23T05:00:39.837Z,1.30
2018-09-23T05:03:09.274Z,1.33
2018-09-23T05:05:38.799Z,1.43
2018-09-23T05:08:08.272Z,1.80
2018-09-23T05:10:37.900Z,1.83
2018-09-23T05:13:07.477Z,1.27
2018-09-23T05:15:37.032Z,1.90
2018-09-23T05:18:06.644Z,2.10
2018-09-23T05:20:36.218Z,1.73
2018-09-23T05:23:05.757Z,3.13
2018-09-23T05:25:35.397Z,2.17
2018-09-23T05:28:04.858Z,2.30
2018-09-23T05:30:34.486Z,2.70
2018-09-23T05:33:03.939Z,2.80
2018-09-23T05:35:33.397Z,3.10
2018-09-23T05:38:02.928Z,3.30
2018-09-23T05:40:32.442Z,2.10
2018-09-23T05:43:02.032Z,2.63
2018-09-23T05:45:31.491Z,2.80
2018-09-23T05:48:01.005Z,6.30
2018-09-23T05:50:30.458Z,2.13
2018-09-23T05:52:59.950Z,2.40
2018-09-23T05:55:29.433Z,1.70
2018-09-23T05:57:58.963Z,2.20
2018-09-23T06:00:30.865Z,2.30
2018-09-23T06:03:00.392Z,2.70
2018-09-23T06:05:29.793Z,2.67
2018-09-23T06:07:59.255Z,2.73
2018-09-23T06:10:28.701Z,3.10
2018-09-23T06:12:58.168Z,2.60
2018-09-23T06:15:27.720Z,3.13
2018-09-23T06:17:57.215Z,2.87
2018-09-23T06:20:26.724Z,2.23
2018-09-23T06:22:56.225Z,2.50
2018-09-23T06:25:25.733Z,3.00
2018-09-23T06:27:55.224Z,3.08
2018-09-23T06:30:24.774Z,3.17
2018-09-23T06:32:54.264Z,2.67
2018-09-23T06:35:23.750Z,2.80
2018-09-23T06:37:53.282Z,3.10
2018-09-23T06:40:22.801Z,2.53
2018-09-23T06:42:52.311Z,2.60
2018-09-23T06:45:21.844Z,2.97
2018-09-23T06:47:51.352Z,2.70
2018-09-23T06:50:20.880Z,3.10
2018-09-23T06:52:50.389Z,3.83
2018-09-23T06:55:19.932Z,4.93
2018-09-23T06:57:49.669Z,3.63
2018-09-23T07:00:19.199Z,3.00
2018-09-23T07:02:48.702Z,3.90
2018-09-23T07:05:18.210Z,3.93
2018-09-23T07:07:47.732Z,3.83
2018-09-23T07:10:17.269Z,5.10
2018-09-23T07:12:46.803Z,3.80
2018-09-23T07:15:16.327Z,4.17
2018-09-23T07:17:46.021Z,6.63
2018-09-23T07:20:15.660Z,3.97
2018-09-23T07:22:45.402Z,5.57
2018-09-23T07:25:14.907Z,4.87
2018-09-23T07:27:44.494Z,4.97
2018-09-23T07:30:14.016Z,5.77
2018-09-23T07:32:43.722Z,5.23
2018-09-23T07:35:13.322Z,5.67
2018-09-23T07:37:42.844Z,10.37
2018-09-23T07:40:12.445Z,8.50
2018-09-23T07:42:41.989Z,4.90
2018-09-23T07:45:11.568Z,5.47
2018-09-23T07:47:41.056Z,6.13
2018-09-23T07:50:10.602Z,7.63
2018-09-23T07:52:40.136Z,5.10
2018-09-23T07:55:09.668Z,5.33
2018-09-23T07:57:39.218Z,5.80
2018-09-23T08:00:08.737Z,4.83
2018-09-23T08:02:38.247Z,5.27
2018-09-23T08:05:07.778Z,6.07
2018-09-23T08:07:37.271Z,6.37
2018-09-23T08:10:07.089Z,7.33
2018-09-23T08:12:36.801Z,4.00
2018-09-23T08:15:06.676Z,4.13
2018-09-23T08:17:36.909Z,4.80
2018-09-23T08:20:06.632Z,3.60
2018-09-23T08:22:36.101Z,3.40
2018-09-23T08:25:05.805Z,3.20
2018-09-23T08:27:35.378Z,2.50
2018-09-23T08:30:05.283Z,2.67
2018-09-23T08:32:34.840Z,2.60
2018-09-23T08:35:04.379Z,2.40
2018-09-23T08:37:33.896Z,2.50
2018-09-23T08:40:03.634Z,2.47
2018-09-23T08:42:33.191Z,2.73
2018-09-23T08:45:02.793Z,2.17
2018-09-23T08:47:32.313Z,1.80
2018-09-23T08:50:01.827Z,1.83
2018-09-23T08:52:31.379Z,1.73
2018-09-23T08:55:00.854Z,1.53
2018-09-23T08:57:30.398Z,1.40
2018-09-23T08:59:59.922Z,1.00
2018-09-23T09:02:29.474Z,0.97
2018-09-23T09:04:59.001Z,1.37
2018-09-23T09:07:28.541Z,1.50
2018-09-23T09:09:58.049Z,0.80
2018-09-23T09:12:27.656Z,5.30
2018-09-23T09:14:57.199Z,0.87
2018-09-23T09:17:26.764Z,1.70
2018-09-23T09:19:56.297Z,0.77
2018-09-23T09:22:25.790Z,0.90
2018-09-23T09:24:55.424Z,1.57
2018-09-23T09:27:24.950Z,0.60
2018-09-23T09:29:54.803Z,0.90
2018-09-23T09:32:24.327Z,0.70
2018-09-23T09:34:54.144Z,1.33
2018-09-23T09:37:23.676Z,0.67
2018-09-23T09:39:53.321Z,0.70
2018-09-23T09:42:22.833Z,1.60
2018-09-23T09:44:52.592Z,7.80
2018-09-23T09:47:22.155Z,1.00
2018-09-23T09:49:51.677Z,0.90
2018-09-23T09:52:22.205Z,1.00
2018-09-23T09:54:51.734Z,2.10
2018-09-23T09:57:21.316Z,1.07
2018-09-23T09:59:51.450Z,0.60
2018-09-23T10:02:21.054Z,0.80
2018-09-23T10:04:57.375Z,1.00
2018-09-23T10:07:26.956Z,0.90
2018-09-23T10:09:56.733Z,3.67
2018-09-23T10:12:26.295Z,0.70
2018-09-23T10:14:56.005Z,0.67
2018-09-23T10:17:25.652Z,2.07
2018-09-23T10:19:55.401Z,2.20
2018-09-23T10:22:24.973Z,0.60
2018-09-23T10:24:54.510Z,3.23
2018-09-23T10:27:24.022Z,1.87
2018-09-23T10:29:53.585Z,0.87
2018-09-23T10:32:23.189Z,0.60
2018-09-23T10:34:53.072Z,0.77
2018-09-23T10:37:22.653Z,0.70
2018-09-23T10:39:52.168Z,0.87
2018-09-23T10:42:21.665Z,0.80
2018-09-23T10:44:51.181Z,0.80
2018-09-23T10:47:21.472Z,0.70
2018-09-23T10:49:51.920Z,1.03
2018-09-23T10:52:21.602Z,1.47
2018-09-23T10:54:51.118Z,1.03
2018-09-23T10:57:20.671Z,1.27
2018-09-23T10:59:50.341Z,0.93
2018-09-23T11:02:19.854Z,1.00
2018-09-23T11:04:49.364Z,1.90
2018-09-23T11:07:18.981Z,2.00
2018-09-23T11:09:48.663Z,4.03
2018-09-23T11:12:18.180Z,3.20
2018-09-23T11:14:47.688Z,2.03
2018-09-23T11:17:17.169Z,3.70
2018-09-23T11:19:46.786Z,5.27
2018-09-23T11:22:16.304Z,3.73
2018-09-23T11:24:45.890Z,3.23
2018-09-23T11:27:15.413Z,2.67
2018-09-23T11:29:45.025Z,2.70
2018-09-23T11:32:14.557Z,3.03
2018-09-23T11:34:44.109Z,3.10
2018-09-23T11:37:13.614Z,5.77
2018-09-23T11:39:43.236Z,3.23
2018-09-23T11:42:12.844Z,3.83
2018-09-23T11:44:42.354Z,5.63
2018-09-23T11:47:11.881Z,2.70
2018-09-23T11:49:41.417Z,2.53
2018-09-23T11:52:10.935Z,5.87
2018-09-23T11:54:40.500Z,1.80
2018-09-23T11:57:10.092Z,1.30
2018-09-23T11:59:40.211Z,6.00
2018-09-23T12:02:09.742Z,1.40
2018-09-23T12:04:39.247Z,2.57
2018-09-23T12:07:08.797Z,1.90
2018-09-23T12:09:39.093Z,1.77
2018-09-23T12:12:08.669Z,1.10
2018-09-23T12:14:38.205Z,3.80
2018-09-23T12:17:07.999Z,1.30
2018-09-23T12:19:37.540Z,3.43
2018-09-23T12:22:07.203Z,1.40
2018-09-23T12:24:36.758Z,1.30
2018-09-23T12:27:06.365Z,0.97
2018-09-23T12:29:35.995Z,0.80
2018-09-23T12:32:05.631Z,0.67
2018-09-23T12:34:35.213Z,0.90
2018-09-23T12:37:05.844Z,0.80
2018-09-23T12:39:36.625Z,0.90
2018-09-23T12:42:06.378Z,0.80
2018-09-23T12:44:36.453Z,0.80
2018-09-23T12:47:06.349Z,0.70
2018-09-23T12:49:36.859Z,4.63
2018-09-23T12:52:06.739Z,0.97
2018-09-23T12:54:36.354Z,0.70
2018-09-23T12:57:06.193Z,0.70
2018-09-23T12:59:35.730Z,4.37
2018-09-23T13:02:06.538Z,0.80
2018-09-23T13:04:36.071Z,1.03
2018-09-23T13:07:06.572Z,0.70
2018-09-23T13:09:36.806Z,0.70
2018-09-23T13:12:06.352Z,0.70
2018-09-23T13:14:36.123Z,0.70
2018-09-23T13:17:05.750Z,0.90
2018-09-23T13:19:35.308Z,0.90
2018-09-23T13:22:04.868Z,0.70
2018-09-23T13:24:34.366Z,0.70
2018-09-23T13:27:03.859Z,0.70
2018-09-23T13:29:33.436Z,0.83
2018-09-23T13:32:03.111Z,0.60
2018-09-23T13:34:32.732Z,0.70
2018-09-23T13:37:02.698Z,0.80
2018-09-23T13:39:32.261Z,1.67
2018-09-23T13:42:02.808Z,1.77
2018-09-23T13:44:32.353Z,4.73
2018-09-23T13:47:01.980Z,1.90
2018-09-23T13:49:31.519Z,0.60
2018-09-23T13:52:01.853Z,0.57
2018-09-23T13:54:32.349Z,0.70
2018-09-23T13:57:01.844Z,1.67
2018-09-23T13:59:31.375Z,0.60
2018-09-23T14:02:02.469Z,0.60
2018-09-23T14:04:33.593Z,0.63
2018-09-23T14:07:03.792Z,1.80
2018-09-23T14:09:33.343Z,0.90
2018-09-23T14:12:02.897Z,2.30
2018-09-23T14:14:32.834Z,1.87
2018-09-23T14:17:02.444Z,6.40
2018-09-23T14:19:31.980Z,0.87
2018-09-23T14:22:01.543Z,11.83
2018-09-23T14:24:31.089Z,3.37
2018-09-23T14:27:00.643Z,4.90
2018-09-23T14:29:33.906Z,1.80
2018-09-23T14:32:03.475Z,0.80
2018-09-23T14:34:33.017Z,3.20
2018-09-23T14:37:09.628Z,8.03
2018-09-23T14:39:39.091Z,1.43
2018-09-23T14:42:08.740Z,0.93
2018-09-23T14:44:40.151Z,1.00
2018-09-23T14:47:09.663Z,1.13
2018-09-23T14:49:39.193Z,0.70
2018-09-23T14:52:08.699Z,1.63
2018-09-23T14:54:38.421Z,0.87
2018-09-23T14:57:07.709Z,0.67
2018-09-23T14:59:37.213Z,0.50
2018-09-23T15:02:06.872Z,0.47
2018-09-23T15:04:37.377Z,0.50
2018-09-23T15:07:07.179Z,4.33
2018-09-23T15:09:36.849Z,0.57
2018-09-23T15:12:06.639Z,0.50
2018-09-23T15:14:36.253Z,1.07
2018-09-23T15:17:05.815Z,0.60
2018-09-23T15:19:35.361Z,1.07
2018-09-23T15:22:04.964Z,0.60
2018-09-23T15:24:34.461Z,10.33
2018-09-23T15:27:04.081Z,0.50
2018-09-23T15:29:33.810Z,1.63
2018-09-23T15:32:03.400Z,0.53
2018-09-23T15:34:32.984Z,0.50
2018-09-23T15:37:02.611Z,0.40
2018-09-23T15:39:32.158Z,0.83
2018-09-23T15:42:01.829Z,0.50
2018-09-23T15:44:31.601Z,0.60
2018-09-23T15:47:01.167Z,0.50
2018-09-23T15:49:30.728Z,0.40
2018-09-23T15:52:00.363Z,0.93
2018-09-23T15:54:29.905Z,0.60
2018-09-23T15:56:59.424Z,0.50
2018-09-23T15:59:28.990Z,0.63
2018-09-23T16:01:58.664Z,0.50
2018-09-23T16:04:28.279Z,0.50
2018-09-23T16:06:57.899Z,0.50
2018-09-23T16:09:27.434Z,0.60
2018-09-23T16:11:57.036Z,0.50
2018-09-23T16:14:26.603Z,0.50
2018-09-23T16:16:56.209Z,0.40
2018-09-23T16:19:25.753Z,8.13
2018-09-23T16:21:55.667Z,0.50
2018-09-23T16:24:25.445Z,0.60
2018-09-23T16:26:55.014Z,0.50
2018-09-23T16:29:24.555Z,0.50
2018-09-23T16:31:54.126Z,0.50
2018-09-23T16:34:24.099Z,0.60
2018-09-23T16:36:53.703Z,1.70
2018-09-23T16:39:23.595Z,0.63
2018-09-23T16:41:53.186Z,1.30
2018-09-23T16:44:23.017Z,0.80
2018-09-23T16:46:52.573Z,0.60
2018-09-23T16:49:22.247Z,0.60
2018-09-23T16:51:51.742Z,0.60
2018-09-23T16:54:21.587Z,0.70
2018-09-23T16:56:51.959Z,2.57
2018-09-23T16:59:21.727Z,0.80
2018-09-23T17:01:51.325Z,2.43
2018-09-23T17:04:20.974Z,0.50
2018-09-23T17:06:50.518Z,0.60
2018-09-23T17:09:20.042Z,0.60
2018-09-23T17:11:49.632Z,0.60
2018-09-23T17:14:19.204Z,1.80
2018-09-23T17:16:48.733Z,0.70
2018-09-23T17:19:18.268Z,0.50
2018-09-23T17:21:47.898Z,0.70
2018-09-23T17:24:17.614Z,1.00
2018-09-23T17:26:48.113Z,0.73
2018-09-23T17:29:17.660Z,0.80
2018-09-23T17:31:47.187Z,0.50
2018-09-23T17:34:16.820Z,0.80
2018-09-23T17:36:46.351Z,0.73
2018-09-23T17:39:15.865Z,0.80
2018-09-23T17:41:45.485Z,0.57
2018-09-23T17:44:15.028Z,7.37
2018-09-23T17:46:44.626Z,1.43
2018-09-23T17:49:14.665Z,0.80
2018-09-23T17:51:44.322Z,0.70
2018-09-23T17:54:15.057Z,5.03
2018-09-23T17:56:44.601Z,0.80
2018-09-23T17:59:15.163Z,0.80
2018-09-23T18:01:44.713Z,0.80
2018-09-23T18:04:14.253Z,0.87
2018-09-23T18:06:44.617Z,1.50
2018-09-23T18:09:14.201Z,0.90
2018-09-23T18:11:44.150Z,0.90
2018-09-23T18:14:13.698Z,1.13
2018-09-23T18:16:43.347Z,1.30
2018-09-23T18:19:13.495Z,0.80
2018-09-23T18:21:43.124Z,1.20
2018-09-23T18:24:12.683Z,1.10
2018-09-23T18:26:42.515Z,1.13
2018-09-23T18:29:12.043Z,1.17
2018-09-23T18:31:42.617Z,1.47
2018-09-23T18:34:12.954Z,1.77
2018-09-23T18:36:42.801Z,1.50
2018-09-23T18:39:12.455Z,1.30
2018-09-23T18:41:42.290Z,1.77
2018-09-23T18:44:11.837Z,1.50
2018-09-23T18:46:41.466Z,1.37
2018-09-23T18:49:10.988Z,1.80
2018-09-23T18:51:41.696Z,1.30
2018-09-23T18:54:16.347Z,1.40
2018-09-23T18:56:46.476Z,1.60
2018-09-23T18:59:16.165Z,1.33
2018-09-23T19:01:45.790Z,1.57
2018-09-23T19:04:15.979Z,1.30
2018-09-23T19:06:46.147Z,4.40
2018-09-23T19:09:15.704Z,3.90
2018-09-23T19:11:45.225Z,1.40
2018-09-23T19:14:15.586Z,1.50
2018-09-23T19:16:45.218Z,1.40
2018-09-23T19:19:14.701Z,1.60
2018-09-23T19:21:44.217Z,1.50
2018-09-23T19:24:13.729Z,2.33
2018-09-23T19:26:43.962Z,1.60
2018-09-23T19:29:13.572Z,2.10
2018-09-23T19:31:43.223Z,1.70
2018-09-23T19:34:12.717Z,1.50
2018-09-23T19:36:42.278Z,2.00
2018-09-23T19:39:12.159Z,2.83
2018-09-23T19:41:41.738Z,3.13
2018-09-23T19:44:11.290Z,1.70
2018-09-23T19:46:40.856Z,1.97
2018-09-23T19:49:10.470Z,1.87
2018-09-23T19:51:40.133Z,4.03
2018-09-23T19:54:09.716Z,1.47
2018-09-23T19:56:39.325Z,1.40
2018-09-23T19:59:09.069Z,1.60
2018-09-23T20:01:38.768Z,1.90
2018-09-23T20:04:08.887Z,2.77
2018-09-23T20:06:38.623Z,2.53
2018-09-23T20:09:10.189Z,2.27
2018-09-23T20:11:40.400Z,2.17
2018-09-23T20:14:10.085Z,2.07
2018-09-23T20:16:40.711Z,1.77
2018-09-23T20:19:10.324Z,2.13
2018-09-23T20:21:40.335Z,2.23
2018-09-23T20:24:09.857Z,3.53
2018-09-23T20:26:39.667Z,1.60
2018-09-23T20:29:09.260Z,1.53
2018-09-23T20:31:38.972Z,2.70
2018-09-23T20:34:08.733Z,2.10
2018-09-23T20:36:38.451Z,2.50
2018-09-23T20:39:09.861Z,1.53
2018-09-23T20:41:39.469Z,1.93
2018-09-23T20:44:09.165Z,3.10
2018-09-23T20:46:38.669Z,1.90
2018-09-23T20:49:08.422Z,2.70
2018-09-23T20:51:37.997Z,1.80
2018-09-23T20:54:07.713Z,2.30
2018-09-23T20:56:38.017Z,2.10
2018-09-23T20:59:07.622Z,1.30
2018-09-23T21:01:38.056Z,2.03
2018-09-23T21:04:07.858Z,2.83
2018-09-23T21:06:37.482Z,1.60
2018-09-23T21:09:09.869Z,1.40
2018-09-23T21:11:39.540Z,1.43
2018-09-23T21:14:09.234Z,1.40
2018-09-23T21:16:38.811Z,1.43
2018-09-23T21:19:08.555Z,5.50
2018-09-23T21:21:38.072Z,1.17
2018-09-23T21:24:07.970Z,2.07
2018-09-23T21:26:37.500Z,1.37
2018-09-23T21:29:07.222Z,2.20
2018-09-23T21:31:36.735Z,2.80
2018-09-23T21:34:06.271Z,4.60
2018-09-23T21:36:35.815Z,1.40
2018-09-23T21:39:07.374Z,3.53
2018-09-23T21:41:36.993Z,1.57
2018-09-23T21:44:06.593Z,1.93
2018-09-23T21:46:36.111Z,1.40
2018-09-23T21:49:05.665Z,1.47
2018-09-23T21:51:35.204Z,1.23
2018-09-23T21:54:04.645Z,1.40
2018-09-23T21:56:34.182Z,2.70
2018-09-23T21:59:03.676Z,2.73
2018-09-23T22:01:33.182Z,1.70
2018-09-23T22:04:02.826Z,3.20
2018-09-23T22:06:32.385Z,1.90
2018-09-23T22:09:01.876Z,1.93
2018-09-23T22:11:31.334Z,2.00
2018-09-23T22:14:00.937Z,2.50
2018-09-23T22:16:30.460Z,1.93
2018-09-23T22:18:59.979Z,4.43
2018-09-23T22:21:29.557Z,1.83
2018-09-23T22:23:59.118Z,1.67
2018-09-23T22:26:28.648Z,1.80
2018-09-23T22:28:58.116Z,1.57
2018-09-23T22:31:27.584Z,1.93
2018-09-23T22:33:57.066Z,3.90
2018-09-23T22:36:26.520Z,2.03
2018-09-23T22:38:56.046Z,2.27
2018-09-23T22:41:25.521Z,2.50
2018-09-23T22:43:55.051Z,2.20
2018-09-23T22:46:24.513Z,3.20
2018-09-23T22:48:54.025Z,5.17
2018-09-23T22:51:23.547Z,4.83
2018-09-23T22:53:53.066Z,2.30
2018-09-23T22:56:22.541Z,8.03
2018-09-23T22:58:52.026Z,3.13
2018-09-23T23:01:21.529Z,2.60
2018-09-23T23:03:51.026Z,2.23
2018-09-23T23:06:20.466Z,2.80
2018-09-23T23:08:49.938Z,2.30
2018-09-23T23:11:19.532Z,4.70
2018-09-23T23:13:48.995Z,2.40
2018-09-23T23:16:18.607Z,4.70
2018-09-23T23:18:48.094Z,2.17
2018-09-23T23:21:17.621Z,7.93
2018-09-23T23:23:47.113Z,4.50
2018-09-23T23:26:16.626Z,2.80
2018-09-23T23:28:46.223Z,2.37
2018-09-23T23:31:15.793Z,2.20
2018-09-23T23:33:45.308Z,5.30
2018-09-23T23:36:14.813Z,6.20
2018-09-23T23:38:44.302Z,5.20
2018-09-23T23:41:13.764Z,5.03
2018-09-23T23:43:43.264Z,4.40
2018-09-23T23:46:12.729Z,3.73
2018-09-23T23:48:42.184Z,6.20
2018-09-23T23:51:11.662Z,5.70
2018-09-23T23:53:41.122Z,3.77
2018-09-23T23:56:10.605Z,5.63
2018-09-23T23:58:40.057Z,3.87
